Sterling Junction, Massachusetts
Current Conditions -  °F | °C
As of 8:52 AM on Monday 20 Oct 2014 (Local Time) from KFIT Reporting Station
Few Clouds Few Clouds  
Wind Chill: 36°   Ceiling: Unl
Heat Index: 40°   Visibility: 10mi
Dew Point: 28°   Wind: 6mph
Humidity: 63%   Direction: 130°SE
Pressure: 30.06"   Gusts: NA
Location:  42.441°N, 71.7743°W
Report Text: KFIT 201252Z AUTO 13005KT 10SM FEW120 04/M02 A3006 RMK AO2 SLP180 T00441022 TSNO
Loading
Personal Weather Stations






























Interactive Weather Map
Tropical Storm Tracking
New forecast layout! Learn more

10-Day Weather Forecast

Advertisements
Track Severe Weather on mobile